sensor_id;sensor_type;location;lat;lon;timestamp;P1;durP1;ratioP1;P2;durP2;ratioP2
16352;SDS011;8286;51.274;9.542;2023-04-19T00:00:47;14.23;;;9.07;;
16352;SDS011;8286;51.274;9.542;2023-04-19T00:03:13;13.33;;;8.47;;
16352;SDS011;8286;51.274;9.542;2023-04-19T00:05:42;10.83;;;7.87;;
16352;SDS011;8286;51.274;9.542;2023-04-19T00:08:09;10.83;;;7.37;;
16352;SDS011;8286;51.274;9.542;2023-04-19T00:10:35;9.33;;;7.27;;
16352;SDS011;8286;51.274;9.542;2023-04-19T00:13:03;12.27;;;7.83;;
16352;SDS011;8286;51.274;9.542;2023-04-19T00:15:30;9.80;;;6.73;;
16352;SDS011;8286;51.274;9.542;2023-04-19T00:17:59;6.50;;;5.67;;
16352;SDS011;8286;51.274;9.542;2023-04-19T00:20:25;8.00;;;5.00;;
16352;SDS011;8286;51.274;9.542;2023-04-19T00:22:53;7.50;;;4.93;;
16352;SDS011;8286;51.274;9.542;2023-04-19T00:25:20;5.53;;;4.30;;
16352;SDS011;8286;51.274;9.542;2023-04-19T00:27:47;5.27;;;3.60;;
16352;SDS011;8286;51.274;9.542;2023-04-19T00:30:14;5.10;;;3.53;;
16352;SDS011;8286;51.274;9.542;2023-04-19T00:32:40;8.17;;;3.73;;
16352;SDS011;8286;51.274;9.542;2023-04-19T00:35:07;3.33;;;2.93;;
16352;SDS011;8286;51.274;9.542;2023-04-19T00:37:34;4.57;;;3.67;;
16352;SDS011;8286;51.274;9.542;2023-04-19T00:40:02;5.03;;;3.47;;
16352;SDS011;8286;51.274;9.542;2023-04-19T00:42:29;6.20;;;4.80;;
16352;SDS011;8286;51.274;9.542;2023-04-19T00:44:55;6.60;;;5.00;;
16352;SDS011;8286;51.274;9.542;2023-04-19T00:47:22;6.80;;;5.13;;
16352;SDS011;8286;51.274;9.542;2023-04-19T00:49:48;7.47;;;4.63;;
16352;SDS011;8286;51.274;9.542;2023-04-19T00:52:15;6.50;;;4.70;;
16352;SDS011;8286;51.274;9.542;2023-04-19T00:54:42;6.63;;;4.90;;
16352;SDS011;8286;51.274;9.542;2023-04-19T00:57:10;9.63;;;5.63;;
16352;SDS011;8286;51.274;9.542;2023-04-19T00:59:36;6.73;;;5.00;;
16352;SDS011;8286;51.274;9.542;2023-04-19T01:02:03;7.07;;;4.50;;
16352;SDS011;8286;51.274;9.542;2023-04-19T01:04:29;6.87;;;4.57;;
16352;SDS011;8286;51.274;9.542;2023-04-19T01:06:56;4.37;;;3.63;;
16352;SDS011;8286;51.274;9.542;2023-04-19T01:09:22;6.10;;;4.10;;
16352;SDS011;8286;51.274;9.542;2023-04-19T01:11:49;6.80;;;3.87;;
16352;SDS011;8286;51.274;9.542;2023-04-19T01:14:17;5.83;;;4.07;;
16352;SDS011;8286;51.274;9.542;2023-04-19T01:16:43;4.30;;;3.60;;
16352;SDS011;8286;51.274;9.542;2023-04-19T01:19:10;6.60;;;4.30;;
16352;SDS011;8286;51.274;9.542;2023-04-19T01:21:37;5.63;;;3.67;;
16352;SDS011;8286;51.274;9.542;2023-04-19T01:24:05;6.63;;;3.60;;
16352;SDS011;8286;51.274;9.542;2023-04-19T01:26:32;4.17;;;3.43;;
16352;SDS011;8286;51.274;9.542;2023-04-19T01:28:58;3.87;;;3.03;;
16352;SDS011;8286;51.274;9.542;2023-04-19T01:31:25;4.03;;;3.30;;
16352;SDS011;8286;51.274;9.542;2023-04-19T01:33:52;4.10;;;3.50;;
16352;SDS011;8286;51.274;9.542;2023-04-19T01:36:18;4.57;;;3.33;;
16352;SDS011;8286;51.274;9.542;2023-04-19T01:38:45;4.63;;;3.30;;
16352;SDS011;8286;51.274;9.542;2023-04-19T01:41:13;4.00;;;3.37;;
16352;SDS011;8286;51.274;9.542;2023-04-19T01:43:40;4.27;;;3.50;;
16352;SDS011;8286;51.274;9.542;2023-04-19T01:46:07;6.90;;;3.10;;
16352;SDS011;8286;51.274;9.542;2023-04-19T01:48:33;6.73;;;3.30;;
16352;SDS011;8286;51.274;9.542;2023-04-19T01:51:00;4.30;;;2.93;;
16352;SDS011;8286;51.274;9.542;2023-04-19T01:53:26;4.40;;;3.37;;
16352;SDS011;8286;51.274;9.542;2023-04-19T01:55:53;3.73;;;3.33;;
16352;SDS011;8286;51.274;9.542;2023-04-19T01:58:21;4.10;;;3.20;;
16352;SDS011;8286;51.274;9.542;2023-04-19T02:00:47;3.63;;;2.93;;
16352;SDS011;8286;51.274;9.542;2023-04-19T02:03:14;3.17;;;2.90;;
16352;SDS011;8286;51.274;9.542;2023-04-19T02:05:41;4.07;;;2.60;;
16352;SDS011;8286;51.274;9.542;2023-04-19T02:08:07;3.43;;;3.13;;
16352;SDS011;8286;51.274;9.542;2023-04-19T02:10:34;3.77;;;3.13;;
16352;SDS011;8286;51.274;9.542;2023-04-19T02:13:00;4.03;;;2.70;;
16352;SDS011;8286;51.274;9.542;2023-04-19T02:15:28;4.73;;;3.07;;
16352;SDS011;8286;51.274;9.542;2023-04-19T02:17:55;3.73;;;2.70;;
16352;SDS011;8286;51.274;9.542;2023-04-19T02:20:21;3.23;;;2.53;;
16352;SDS011;8286;51.274;9.542;2023-04-19T02:22:48;3.00;;;2.70;;
16352;SDS011;8286;51.274;9.542;2023-04-19T02:25:15;3.17;;;2.87;;
16352;SDS011;8286;51.274;9.542;2023-04-19T02:27:43;4.63;;;3.30;;
16352;SDS011;8286;51.274;9.542;2023-04-19T02:30:10;3.10;;;2.87;;
16352;SDS011;8286;51.274;9.542;2023-04-19T02:32:38;3.53;;;2.60;;
16352;SDS011;8286;51.274;9.542;2023-04-19T02:35:05;3.40;;;2.73;;
16352;SDS011;8286;51.274;9.542;2023-04-19T02:37:32;4.20;;;3.33;;
16352;SDS011;8286;51.274;9.542;2023-04-19T02:39:58;4.00;;;2.67;;
16352;SDS011;8286;51.274;9.542;2023-04-19T02:42:25;3.67;;;3.10;;
16352;SDS011;8286;51.274;9.542;2023-04-19T02:44:51;3.93;;;2.97;;
16352;SDS011;8286;51.274;9.542;2023-04-19T02:47:18;3.83;;;2.87;;
16352;SDS011;8286;51.274;9.542;2023-04-19T02:49:46;5.67;;;3.20;;
16352;SDS011;8286;51.274;9.542;2023-04-19T02:52:12;4.83;;;3.27;;
16352;SDS011;8286;51.274;9.542;2023-04-19T02:54:39;4.20;;;3.37;;
16352;SDS011;8286;51.274;9.542;2023-04-19T02:57:06;3.70;;;3.00;;
16352;SDS011;8286;51.274;9.542;2023-04-19T02:59:32;4.37;;;2.90;;
16352;SDS011;8286;51.274;9.542;2023-04-19T03:01:59;4.63;;;3.20;;
16352;SDS011;8286;51.274;9.542;2023-04-19T03:04:25;3.70;;;3.17;;
16352;SDS011;8286;51.274;9.542;2023-04-19T03:06:54;5.27;;;3.93;;
16352;SDS011;8286;51.274;9.542;2023-04-19T03:09:20;5.13;;;3.27;;
16352;SDS011;8286;51.274;9.542;2023-04-19T03:11:47;3.20;;;2.90;;
16352;SDS011;8286;51.274;9.542;2023-04-19T03:14:13;4.13;;;3.43;;
16352;SDS011;8286;51.274;9.542;2023-04-19T03:16:40;4.83;;;3.30;;
16352;SDS011;8286;51.274;9.542;2023-04-19T03:19:06;3.27;;;2.50;;
16352;SDS011;8286;51.274;9.542;2023-04-19T03:21:33;3.43;;;3.13;;
16352;SDS011;8286;51.274;9.542;2023-04-19T03:24:01;5.47;;;3.93;;
16352;SDS011;8286;51.274;9.542;2023-04-19T03:26:27;5.63;;;3.40;;
16352;SDS011;8286;51.274;9.542;2023-04-19T03:28:54;3.77;;;3.30;;
16352;SDS011;8286;51.274;9.542;2023-04-19T03:31:21;4.37;;;3.53;;
16352;SDS011;8286;51.274;9.542;2023-04-19T03:33:47;4.33;;;3.60;;
16352;SDS011;8286;51.274;9.542;2023-04-19T03:36:14;5.07;;;3.50;;
16352;SDS011;8286;51.274;9.542;2023-04-19T03:38:41;5.07;;;3.60;;
16352;SDS011;8286;51.274;9.542;2023-04-19T03:41:17;4.17;;;3.53;;
16352;SDS011;8286;51.274;9.542;2023-04-19T03:43:44;6.87;;;4.10;;
16352;SDS011;8286;51.274;9.542;2023-04-19T03:46:11;6.87;;;4.07;;
16352;SDS011;8286;51.274;9.542;2023-04-19T03:48:37;4.70;;;3.63;;
16352;SDS011;8286;51.274;9.542;2023-04-19T03:51:04;6.47;;;4.20;;
16352;SDS011;8286;51.274;9.542;2023-04-19T03:53:30;5.63;;;3.90;;
16352;SDS011;8286;51.274;9.542;2023-04-19T03:55:57;8.17;;;4.50;;
16352;SDS011;8286;51.274;9.542;2023-04-19T03:58:25;9.43;;;4.20;;
16352;SDS011;8286;51.274;9.542;2023-04-19T04:00:51;6.00;;;3.80;;
16352;SDS011;8286;51.274;9.542;2023-04-19T04:03:18;4.90;;;3.83;;
16352;SDS011;8286;51.274;9.542;2023-04-19T04:05:45;6.13;;;3.73;;
16352;SDS011;8286;51.274;9.542;2023-04-19T04:08:11;11.87;;;4.13;;
16352;SDS011;8286;51.274;9.542;2023-04-19T04:10:38;6.53;;;4.43;;
16352;SDS011;8286;51.274;9.542;2023-04-19T04:13:05;4.80;;;3.70;;
16352;SDS011;8286;51.274;9.542;2023-04-19T04:15:33;5.63;;;3.90;;
16352;SDS011;8286;51.274;9.542;2023-04-19T04:17:59;4.57;;;3.40;;
16352;SDS011;8286;51.274;9.542;2023-04-19T04:20:26;3.97;;;3.63;;
16352;SDS011;8286;51.274;9.542;2023-04-19T04:22:52;5.07;;;3.17;;
16352;SDS011;8286;51.274;9.542;2023-04-19T04:25:19;5.27;;;3.60;;
16352;SDS011;8286;51.274;9.542;2023-04-19T04:27:49;4.43;;;3.80;;
16352;SDS011;8286;51.274;9.542;2023-04-19T04:30:15;6.10;;;3.80;;
16352;SDS011;8286;51.274;9.542;2023-04-19T04:32:43;5.37;;;4.00;;
16352;SDS011;8286;51.274;9.542;2023-04-19T04:35:11;7.70;;;4.23;;
16352;SDS011;8286;51.274;9.542;2023-04-19T04:37:37;5.57;;;3.27;;
16352;SDS011;8286;51.274;9.542;2023-04-19T04:40:04;4.00;;;3.50;;
16352;SDS011;8286;51.274;9.542;2023-04-19T04:42:32;5.70;;;3.40;;
16352;SDS011;8286;51.274;9.542;2023-04-19T04:44:58;5.97;;;3.90;;
16352;SDS011;8286;51.274;9.542;2023-04-19T04:47:29;7.27;;;3.10;;
16352;SDS011;8286;51.274;9.542;2023-04-19T04:49:57;8.03;;;4.10;;
16352;SDS011;8286;51.274;9.542;2023-04-19T04:52:24;5.43;;;3.33;;
16352;SDS011;8286;51.274;9.542;2023-04-19T04:54:50;8.23;;;3.63;;
16352;SDS011;8286;51.274;9.542;2023-04-19T04:57:17;6.40;;;3.60;;
16352;SDS011;8286;51.274;9.542;2023-04-19T04:59:43;10.17;;;3.37;;
16352;SDS011;8286;51.274;9.542;2023-04-19T05:02:12;5.17;;;3.13;;
16352;SDS011;8286;51.274;9.542;2023-04-19T05:04:38;3.87;;;3.10;;
16352;SDS011;8286;51.274;9.542;2023-04-19T05:07:06;5.17;;;3.70;;
16352;SDS011;8286;51.274;9.542;2023-04-19T05:09:33;4.07;;;3.00;;
16352;SDS011;8286;51.274;9.542;2023-04-19T05:11:59;4.40;;;3.13;;
16352;SDS011;8286;51.274;9.542;2023-04-19T05:14:26;3.90;;;2.80;;
16352;SDS011;8286;51.274;9.542;2023-04-19T05:16:52;4.63;;;3.17;;
16352;SDS011;8286;51.274;9.542;2023-04-19T05:19:19;5.83;;;3.80;;
16352;SDS011;8286;51.274;9.542;2023-04-19T05:21:46;6.20;;;3.70;;
16352;SDS011;8286;51.274;9.542;2023-04-19T05:24:14;3.60;;;3.20;;
16352;SDS011;8286;51.274;9.542;2023-04-19T05:26:41;5.70;;;3.50;;
16352;SDS011;8286;51.274;9.542;2023-04-19T05:29:07;5.40;;;3.53;;
16352;SDS011;8286;51.274;9.542;2023-04-19T05:31:34;7.47;;;3.40;;
16352;SDS011;8286;51.274;9.542;2023-04-19T05:34:01;8.87;;;3.60;;
16352;SDS011;8286;51.274;9.542;2023-04-19T05:36:27;5.07;;;3.10;;
16352;SDS011;8286;51.274;9.542;2023-04-19T05:38:54;4.10;;;2.83;;
16352;SDS011;8286;51.274;9.542;2023-04-19T05:41:22;4.33;;;2.87;;
16352;SDS011;8286;51.274;9.542;2023-04-19T05:43:49;5.30;;;3.43;;
16352;SDS011;8286;51.274;9.542;2023-04-19T05:46:15;4.80;;;3.53;;
16352;SDS011;8286;51.274;9.542;2023-04-19T05:48:42;5.00;;;3.30;;
16352;SDS011;8286;51.274;9.542;2023-04-19T05:51:08;4.43;;;3.50;;
16352;SDS011;8286;51.274;9.542;2023-04-19T05:53:35;6.23;;;4.23;;
16352;SDS011;8286;51.274;9.542;2023-04-19T05:56:01;3.53;;;3.23;;
16352;SDS011;8286;51.274;9.542;2023-04-19T05:58:29;9.33;;;4.13;;
16352;SDS011;8286;51.274;9.542;2023-04-19T06:00:56;5.70;;;3.37;;
16352;SDS011;8286;51.274;9.542;2023-04-19T06:03:22;6.13;;;3.10;;
16352;SDS011;8286;51.274;9.542;2023-04-19T06:05:49;7.67;;;3.83;;
16352;SDS011;8286;51.274;9.542;2023-04-19T06:08:16;6.03;;;3.60;;
16352;SDS011;8286;51.274;9.542;2023-04-19T06:10:42;6.47;;;3.40;;
16352;SDS011;8286;51.274;9.542;2023-04-19T06:13:11;7.20;;;3.83;;
16352;SDS011;8286;51.274;9.542;2023-04-19T06:15:39;4.73;;;3.37;;
16352;SDS011;8286;51.274;9.542;2023-04-19T06:18:06;5.67;;;3.53;;
16352;SDS011;8286;51.274;9.542;2023-04-19T06:20:34;4.60;;;3.63;;
16352;SDS011;8286;51.274;9.542;2023-04-19T06:23:00;3.30;;;3.00;;
16352;SDS011;8286;51.274;9.542;2023-04-19T06:25:27;3.53;;;2.53;;
16352;SDS011;8286;51.274;9.542;2023-04-19T06:27:53;6.23;;;3.00;;
16352;SDS011;8286;51.274;9.542;2023-04-19T06:30:20;3.33;;;2.47;;
16352;SDS011;8286;51.274;9.542;2023-04-19T06:32:48;3.30;;;2.60;;
16352;SDS011;8286;51.274;9.542;2023-04-19T06:35:14;4.20;;;2.73;;
16352;SDS011;8286;51.274;9.542;2023-04-19T06:37:41;3.97;;;2.60;;
16352;SDS011;8286;51.274;9.542;2023-04-19T06:40:08;6.20;;;3.07;;
16352;SDS011;8286;51.274;9.542;2023-04-19T06:42:35;4.17;;;2.77;;
16352;SDS011;8286;51.274;9.542;2023-04-19T06:45:02;5.90;;;3.03;;
16352;SDS011;8286;51.274;9.542;2023-04-19T06:47:29;5.30;;;3.00;;
16352;SDS011;8286;51.274;9.542;2023-04-19T06:49:57;4.87;;;2.70;;
16352;SDS011;8286;51.274;9.542;2023-04-19T06:52:24;3.60;;;2.60;;
16352;SDS011;8286;51.274;9.542;2023-04-19T06:54:51;2.72;;;2.50;;
16352;SDS011;8286;51.274;9.542;2023-04-19T06:57:17;5.68;;;2.78;;
16352;SDS011;8286;51.274;9.542;2023-04-19T06:59:44;4.80;;;2.65;;
16352;SDS011;8286;51.274;9.542;2023-04-19T07:02:11;3.10;;;2.60;;
16352;SDS011;8286;51.274;9.542;2023-04-19T07:04:37;3.60;;;2.60;;
16352;SDS011;8286;51.274;9.542;2023-04-19T07:07:05;2.80;;;2.60;;
16352;SDS011;8286;51.274;9.542;2023-04-19T07:09:32;2.20;;;2.10;;
16352;SDS011;8286;51.274;9.542;2023-04-19T07:11:58;4.15;;;2.45;;
16352;SDS011;8286;51.274;9.542;2023-04-19T07:14:25;2.65;;;2.45;;
16352;SDS011;8286;51.274;9.542;2023-04-19T07:16:52;3.75;;;2.40;;
16352;SDS011;8286;51.274;9.542;2023-04-19T07:19:18;4.90;;;2.20;;
16352;SDS011;8286;51.274;9.542;2023-04-19T07:21:46;4.68;;;2.60;;
16352;SDS011;8286;51.274;9.542;2023-04-19T07:24:14;5.93;;;2.35;;
16352;SDS011;8286;51.274;9.542;2023-04-19T07:26:41;2.83;;;2.03;;
16352;SDS011;8286;51.274;9.542;2023-04-19T07:29:08;3.13;;;2.50;;
16352;SDS011;8286;51.274;9.542;2023-04-19T07:31:34;3.42;;;2.50;;
16352;SDS011;8286;51.274;9.542;2023-04-19T07:34:01;4.97;;;2.60;;
16352;SDS011;8286;51.274;9.542;2023-04-19T07:36:28;2.40;;;2.20;;
16352;SDS011;8286;51.274;9.542;2023-04-19T07:38:55;2.75;;;2.50;;
16352;SDS011;8286;51.274;9.542;2023-04-19T07:41:23;2.60;;;1.92;;
16352;SDS011;8286;51.274;9.542;2023-04-19T07:43:50;3.25;;;2.20;;
16352;SDS011;8286;51.274;9.542;2023-04-19T07:46:16;5.78;;;1.90;;
16352;SDS011;8286;51.274;9.542;2023-04-19T07:48:43;3.08;;;1.65;;
16352;SDS011;8286;51.274;9.542;2023-04-19T07:51:10;5.07;;;2.07;;
16352;SDS011;8286;51.274;9.542;2023-04-19T07:53:37;3.07;;;2.13;;
16352;SDS011;8286;51.274;9.542;2023-04-19T07:56:05;3.10;;;2.17;;
16352;SDS011;8286;51.274;9.542;2023-04-19T07:58:34;3.20;;;1.80;;
16352;SDS011;8286;51.274;9.542;2023-04-19T08:01:00;3.10;;;1.90;;
16352;SDS011;8286;51.274;9.542;2023-04-19T08:03:27;2.25;;;2.08;;
16352;SDS011;8286;51.274;9.542;2023-04-19T08:05:54;2.67;;;2.33;;
16352;SDS011;8286;51.274;9.542;2023-04-19T08:08:21;2.17;;;1.98;;
16352;SDS011;8286;51.274;9.542;2023-04-19T08:10:49;2.05;;;1.95;;
16352;SDS011;8286;51.274;9.542;2023-04-19T08:13:18;3.28;;;1.90;;
16352;SDS011;8286;51.274;9.542;2023-04-19T08:15:46;3.80;;;2.72;;
16352;SDS011;8286;51.274;9.542;2023-04-19T08:18:13;3.25;;;2.42;;
16352;SDS011;8286;51.274;9.542;2023-04-19T08:20:39;2.28;;;2.15;;
16352;SDS011;8286;51.274;9.542;2023-04-19T08:23:07;2.17;;;2.03;;
16352;SDS011;8286;51.274;9.542;2023-04-19T08:25:35;2.35;;;2.15;;
16352;SDS011;8286;51.274;9.542;2023-04-19T08:28:02;2.53;;;2.33;;
16352;SDS011;8286;51.274;9.542;2023-04-19T08:30:28;3.83;;;2.38;;
16352;SDS011;8286;51.274;9.542;2023-04-19T08:32:56;2.50;;;2.20;;
16352;SDS011;8286;51.274;9.542;2023-04-19T08:35:23;3.80;;;2.45;;
16352;SDS011;8286;51.274;9.542;2023-04-19T08:37:50;2.80;;;2.35;;
16352;SDS011;8286;51.274;9.542;2023-04-19T08:40:16;2.90;;;2.60;;
16352;SDS011;8286;51.274;9.542;2023-04-19T08:42:43;4.17;;;2.60;;
16352;SDS011;8286;51.274;9.542;2023-04-19T08:45:10;2.60;;;1.73;;
16352;SDS011;8286;51.274;9.542;2023-04-19T08:47:38;3.07;;;2.10;;
16352;SDS011;8286;51.274;9.542;2023-04-19T08:50:07;2.13;;;1.93;;
16352;SDS011;8286;51.274;9.542;2023-04-19T08:52:34;2.23;;;2.03;;
16352;SDS011;8286;51.274;9.542;2023-04-19T08:55:02;5.07;;;2.27;;
16352;SDS011;8286;51.274;9.542;2023-04-19T08:57:29;3.60;;;2.03;;
16352;SDS011;8286;51.274;9.542;2023-04-19T08:59:56;3.27;;;2.00;;
16352;SDS011;8286;51.274;9.542;2023-04-19T09:02:23;2.87;;;2.07;;
16352;SDS011;8286;51.274;9.542;2023-04-19T09:04:49;2.40;;;2.20;;
16352;SDS011;8286;51.274;9.542;2023-04-19T09:07:24;3.92;;;2.13;;
16352;SDS011;8286;51.274;9.542;2023-04-19T09:10:03;3.65;;;2.40;;
16352;SDS011;8286;51.274;9.542;2023-04-19T09:12:30;2.40;;;2.15;;
16352;SDS011;8286;51.274;9.542;2023-04-19T09:14:57;4.60;;;1.83;;
16352;SDS011;8286;51.274;9.542;2023-04-19T09:17:23;2.53;;;2.13;;
16352;SDS011;8286;51.274;9.542;2023-04-19T09:19:50;1.80;;;1.70;;
16352;SDS011;8286;51.274;9.542;2023-04-19T09:22:16;2.53;;;1.90;;
16352;SDS011;8286;51.274;9.542;2023-04-19T09:24:45;2.65;;;1.52;;
16352;SDS011;8286;51.274;9.542;2023-04-19T09:27:11;4.00;;;2.17;;
16352;SDS011;8286;51.274;9.542;2023-04-19T09:29:38;4.33;;;1.73;;
16352;SDS011;8286;51.274;9.542;2023-04-19T09:32:04;2.00;;;1.67;;
16352;SDS011;8286;51.274;9.542;2023-04-19T09:34:31;3.97;;;1.73;;
16352;SDS011;8286;51.274;9.542;2023-04-19T09:37:10;2.00;;;1.80;;
16352;SDS011;8286;51.274;9.542;2023-04-19T09:39:37;1.60;;;1.50;;
16352;SDS011;8286;51.274;9.542;2023-04-19T09:42:05;2.90;;;1.70;;
16352;SDS011;8286;51.274;9.542;2023-04-19T09:44:32;3.42;;;1.90;;
16352;SDS011;8286;51.274;9.542;2023-04-19T09:46:59;3.33;;;1.90;;
16352;SDS011;8286;51.274;9.542;2023-04-19T09:49:26;2.72;;;1.98;;
16352;SDS011;8286;51.274;9.542;2023-04-19T09:51:52;3.15;;;2.03;;
16352;SDS011;8286;51.274;9.542;2023-04-19T09:54:20;2.13;;;1.70;;
16352;SDS011;8286;51.274;9.542;2023-04-19T09:56:48;3.25;;;1.90;;
16352;SDS011;8286;51.274;9.542;2023-04-19T09:59:16;2.35;;;1.80;;
16352;SDS011;8286;51.274;9.542;2023-04-19T10:01:43;3.10;;;1.80;;
16352;SDS011;8286;51.274;9.542;2023-04-19T10:04:11;2.35;;;1.55;;
16352;SDS011;8286;51.274;9.542;2023-04-19T10:06:38;3.58;;;2.08;;
16352;SDS011;8286;51.274;9.542;2023-04-19T10:09:05;2.45;;;2.25;;
16352;SDS011;8286;51.274;9.542;2023-04-19T10:11:33;2.13;;;2.03;;
16352;SDS011;8286;51.274;9.542;2023-04-19T10:14:03;2.45;;;2.25;;
16352;SDS011;8286;51.274;9.542;2023-04-19T10:16:32;6.15;;;2.30;;
16352;SDS011;8286;51.274;9.542;2023-04-19T10:19:00;2.75;;;2.20;;
16352;SDS011;8286;51.274;9.542;2023-04-19T10:21:27;2.00;;;1.90;;
16352;SDS011;8286;51.274;9.542;2023-04-19T10:23:55;3.85;;;2.05;;
16352;SDS011;8286;51.274;9.542;2023-04-19T10:26:22;3.67;;;2.15;;
16352;SDS011;8286;51.274;9.542;2023-04-19T10:28:49;2.72;;;2.40;;
16352;SDS011;8286;51.274;9.542;2023-04-19T10:31:16;3.28;;;2.20;;
16352;SDS011;8286;51.274;9.542;2023-04-19T10:33:48;2.50;;;2.30;;
16352;SDS011;8286;51.274;9.542;2023-04-19T10:36:16;3.08;;;2.13;;
16352;SDS011;8286;51.274;9.542;2023-04-19T10:38:43;2.70;;;2.20;;
16352;SDS011;8286;51.274;9.542;2023-04-19T10:41:12;4.22;;;2.50;;
16352;SDS011;8286;51.274;9.542;2023-04-19T10:43:39;2.65;;;2.17;;
16352;SDS011;8286;51.274;9.542;2023-04-19T10:46:08;2.63;;;2.00;;
16352;SDS011;8286;51.274;9.542;2023-04-19T10:48:40;2.45;;;2.25;;
16352;SDS011;8286;51.274;9.542;2023-04-19T10:51:19;2.08;;;1.90;;
16352;SDS011;8286;51.274;9.542;2023-04-19T10:53:47;2.80;;;2.60;;
16352;SDS011;8286;51.274;9.542;2023-04-19T10:56:18;4.22;;;2.03;;
16352;SDS011;8286;51.274;9.542;2023-04-19T11:01:45;2.10;;;2.00;;
16352;SDS011;8286;51.274;9.542;2023-04-19T11:04:13;6.35;;;2.30;;
16352;SDS011;8286;51.274;9.542;2023-04-19T11:09:26;3.72;;;2.30;;
16352;SDS011;8286;51.274;9.542;2023-04-19T11:11:53;2.67;;;2.47;;
16352;SDS011;8286;51.274;9.542;2023-04-19T11:14:23;4.65;;;2.30;;
16352;SDS011;8286;51.274;9.542;2023-04-19T11:16:50;2.03;;;1.92;;
16352;SDS011;8286;51.274;9.542;2023-04-19T11:19:17;2.65;;;2.45;;
16352;SDS011;8286;51.274;9.542;2023-04-19T11:21:44;3.53;;;2.30;;
16352;SDS011;8286;51.274;9.542;2023-04-19T11:24:12;3.95;;;2.17;;
16352;SDS011;8286;51.274;9.542;2023-04-19T11:26:41;3.58;;;2.92;;
16352;SDS011;8286;51.274;9.542;2023-04-19T11:29:08;2.88;;;2.28;;
16352;SDS011;8286;51.274;9.542;2023-04-19T11:31:34;6.13;;;2.35;;
16352;SDS011;8286;51.274;9.542;2023-04-19T11:34:01;2.63;;;2.30;;
16352;SDS011;8286;51.274;9.542;2023-04-19T11:36:28;4.22;;;2.40;;
16352;SDS011;8286;51.274;9.542;2023-04-19T11:38:55;4.53;;;2.10;;
16352;SDS011;8286;51.274;9.542;2023-04-19T11:41:23;2.30;;;2.10;;
16352;SDS011;8286;51.274;9.542;2023-04-19T11:43:50;5.45;;;2.50;;
16352;SDS011;8286;51.274;9.542;2023-04-19T11:46:17;2.00;;;1.90;;
16352;SDS011;8286;51.274;9.542;2023-04-19T11:48:49;3.17;;;2.53;;
16352;SDS011;8286;51.274;9.542;2023-04-19T11:51:17;2.47;;;2.25;;
16352;SDS011;8286;51.274;9.542;2023-04-19T11:53:43;2.75;;;2.35;;
16352;SDS011;8286;51.274;9.542;2023-04-19T11:56:10;4.25;;;2.70;;
16352;SDS011;8286;51.274;9.542;2023-04-19T11:58:41;2.67;;;2.47;;
16352;SDS011;8286;51.274;9.542;2023-04-19T12:01:09;2.85;;;2.15;;
16352;SDS011;8286;51.274;9.542;2023-04-19T12:03:39;3.60;;;2.60;;
16352;SDS011;8286;51.274;9.542;2023-04-19T12:06:09;2.53;;;2.30;;
16352;SDS011;8286;51.274;9.542;2023-04-19T12:08:37;4.38;;;2.35;;
16352;SDS011;8286;51.274;9.542;2023-04-19T12:11:04;2.90;;;2.35;;
16352;SDS011;8286;51.274;9.542;2023-04-19T12:13:31;5.95;;;2.53;;
16352;SDS011;8286;51.274;9.542;2023-04-19T12:15:59;2.42;;;2.20;;
16352;SDS011;8286;51.274;9.542;2023-04-19T12:18:26;2.85;;;2.55;;
16352;SDS011;8286;51.274;9.542;2023-04-19T12:20:53;2.65;;;2.45;;
16352;SDS011;8286;51.274;9.542;2023-04-19T12:23:20;2.50;;;2.30;;
16352;SDS011;8286;51.274;9.542;2023-04-19T12:25:46;6.22;;;2.63;;
16352;SDS011;8286;51.274;9.542;2023-04-19T12:28:14;5.32;;;2.33;;
16352;SDS011;8286;51.274;9.542;2023-04-19T12:30:40;2.65;;;2.22;;
16352;SDS011;8286;51.274;9.542;2023-04-19T12:33:08;4.00;;;2.13;;
16352;SDS011;8286;51.274;9.542;2023-04-19T12:35:35;3.47;;;2.28;;
16352;SDS011;8286;51.274;9.542;2023-04-19T12:38:03;2.80;;;2.08;;
16352;SDS011;8286;51.274;9.542;2023-04-19T12:40:29;3.50;;;2.47;;
16352;SDS011;8286;51.274;9.542;2023-04-19T12:42:56;2.78;;;1.95;;
16352;SDS011;8286;51.274;9.542;2023-04-19T12:45:22;2.45;;;1.80;;
16352;SDS011;8286;51.274;9.542;2023-04-19T12:47:49;2.25;;;2.08;;
16352;SDS011;8286;51.274;9.542;2023-04-19T12:50:17;6.38;;;2.20;;
16352;SDS011;8286;51.274;9.542;2023-04-19T12:52:43;3.63;;;2.00;;
16352;SDS011;8286;51.274;9.542;2023-04-19T12:55:10;3.90;;;2.13;;
16352;SDS011;8286;51.274;9.542;2023-04-19T12:57:37;2.30;;;2.10;;
16352;SDS011;8286;51.274;9.542;2023-04-19T13:00:04;2.17;;;1.98;;
16352;SDS011;8286;51.274;9.542;2023-04-19T13:02:33;2.35;;;2.15;;
16352;SDS011;8286;51.274;9.542;2023-04-19T13:04:59;3.08;;;2.00;;
16352;SDS011;8286;51.274;9.542;2023-04-19T13:07:27;3.10;;;2.33;;
16352;SDS011;8286;51.274;9.542;2023-04-19T13:09:54;2.15;;;1.77;;
16352;SDS011;8286;51.274;9.542;2023-04-19T13:12:20;2.28;;;1.80;;
16352;SDS011;8286;51.274;9.542;2023-04-19T13:14:47;3.17;;;1.90;;
16352;SDS011;8286;51.274;9.542;2023-04-19T13:17:16;2.03;;;1.80;;
16352;SDS011;8286;51.274;9.542;2023-04-19T13:19:42;3.72;;;1.70;;
16352;SDS011;8286;51.274;9.542;2023-04-19T13:22:09;4.13;;;1.98;;
16352;SDS011;8286;51.274;9.542;2023-04-19T13:24:37;2.03;;;1.92;;
16352;SDS011;8286;51.274;9.542;2023-04-19T13:27:03;3.88;;;2.20;;
16352;SDS011;8286;51.274;9.542;2023-04-19T13:29:30;1.92;;;1.80;;
16352;SDS011;8286;51.274;9.542;2023-04-19T13:31:56;2.80;;;1.92;;
16352;SDS011;8286;51.274;9.542;2023-04-19T13:34:23;2.33;;;2.13;;
16352;SDS011;8286;51.274;9.542;2023-04-19T13:38:13;2.47;;;1.92;;
16352;SDS011;8286;51.274;9.542;2023-04-19T13:40:40;2.67;;;2.47;;
16352;SDS011;8286;51.274;9.542;2023-04-19T13:43:06;2.30;;;2.10;;
16352;SDS011;8286;51.274;9.542;2023-04-19T13:45:33;3.25;;;1.90;;
16352;SDS011;8286;51.274;9.542;2023-04-19T13:47:59;5.32;;;1.70;;
16352;SDS011;8286;51.274;9.542;2023-04-19T13:50:26;2.33;;;2.20;;
16352;SDS011;8286;51.274;9.542;2023-04-19T13:52:52;3.20;;;2.30;;
16352;SDS011;8286;51.274;9.542;2023-04-19T13:55:20;2.15;;;2.05;;
16352;SDS011;8286;51.274;9.542;2023-04-19T13:57:46;4.75;;;2.08;;
16352;SDS011;8286;51.274;9.542;2023-04-19T14:00:13;4.20;;;2.30;;
16352;SDS011;8286;51.274;9.542;2023-04-19T14:02:40;2.65;;;2.08;;
16352;SDS011;8286;51.274;9.542;2023-04-19T14:05:07;2.50;;;2.03;;
16352;SDS011;8286;51.274;9.542;2023-04-19T14:07:34;2.10;;;1.70;;
16352;SDS011;8286;51.274;9.542;2023-04-19T14:10:01;4.25;;;2.13;;
16352;SDS011;8286;51.274;9.542;2023-04-19T14:12:29;3.60;;;1.98;;
16352;SDS011;8286;51.274;9.542;2023-04-19T14:14:55;2.17;;;2.00;;
16352;SDS011;8286;51.274;9.542;2023-04-19T14:17:22;2.63;;;2.20;;
16352;SDS011;8286;51.274;9.542;2023-04-19T14:19:48;3.33;;;2.07;;
16352;SDS011;8286;51.274;9.542;2023-04-19T14:22:15;3.27;;;2.00;;
16352;SDS011;8286;51.274;9.542;2023-04-19T14:24:42;4.13;;;1.93;;
16352;SDS011;8286;51.274;9.542;2023-04-19T14:27:09;3.03;;;1.87;;
16352;SDS011;8286;51.274;9.542;2023-04-19T14:29:37;2.08;;;1.67;;
16352;SDS011;8286;51.274;9.542;2023-04-19T14:32:04;5.17;;;2.47;;
16352;SDS011;8286;51.274;9.542;2023-04-19T14:34:31;4.07;;;1.60;;
16352;SDS011;8286;51.274;9.542;2023-04-19T14:36:58;1.77;;;1.57;;
16352;SDS011;8286;51.274;9.542;2023-04-19T14:39:24;3.57;;;1.77;;
16352;SDS011;8286;51.274;9.542;2023-04-19T14:41:51;4.27;;;1.80;;
16352;SDS011;8286;51.274;9.542;2023-04-19T14:44:17;1.83;;;1.73;;
16352;SDS011;8286;51.274;9.542;2023-04-19T14:46:45;2.50;;;2.15;;
16352;SDS011;8286;51.274;9.542;2023-04-19T14:49:11;2.17;;;1.80;;
16352;SDS011;8286;51.274;9.542;2023-04-19T14:51:38;2.37;;;1.80;;
16352;SDS011;8286;51.274;9.542;2023-04-19T14:54:04;2.43;;;1.90;;
16352;SDS011;8286;51.274;9.542;2023-04-19T14:56:31;2.30;;;1.67;;
16352;SDS011;8286;51.274;9.542;2023-04-19T14:58:57;2.00;;;1.77;;
16352;SDS011;8286;51.274;9.542;2023-04-19T15:01:24;4.00;;;2.03;;
16352;SDS011;8286;51.274;9.542;2023-04-19T15:03:52;1.97;;;1.70;;
16352;SDS011;8286;51.274;9.542;2023-04-19T15:06:18;3.43;;;1.50;;